Time;durP1;ratioP1;P1;durP2;ratioP2;P2;SDS_P1;SDS_P2;PMS_P1;PMS_P2;Temp;Humidity;BMP_temperature;BMP_pressure;BME280_temperature;BME280_humidity;BME280_pressure;Samples;Min_cycle;Max_cycle;Signal;HPM_P1;HPM_P2
2024/02/12 00:00:46;;;;;;;57.10;21.80;;;;;;;3.15;100.00;99184.45;87578;270;137206;-80
2024/02/12 00:02:48;;;;;;;32.20;21.20;;;;;;;3.15;100.00;99185.27;88050;260;25111;-74
2024/02/12 00:04:51;;;;;;;39.00;20.10;;;;;;;3.17;100.00;99178.10;87851;273;137594;-79
2024/02/12 00:06:56;;;;;;;32.30;20.30;;;;;;;3.18;100.00;99169.98;87788;271;25172;-78
2024/02/12 00:08:58;;;;;;;38.80;20.70;;;;;;;3.17;100.00;99165.02;87693;269;136204;-77
2024/02/12 00:10:59;;;;;;;36.20;18.50;;;;;;;3.18;100.00;99162.95;87768;273;22637;-73
2024/02/12 00:13:01;;;;;;;33.50;18.60;;;;;;;3.19;100.00;99155.81;87610;265;138729;-77
2024/02/12 00:15:06;;;;;;;45.50;16.80;;;;;;;3.20;100.00;99156.59;87730;273;25070;-77
2024/02/12 00:17:09;;;;;;;32.30;17.90;;;;;;;3.21;100.00;99159.73;88135;267;136263;-78
2024/02/12 00:19:12;;;;;;;36.30;17.80;;;;;;;3.22;100.00;99156.80;88475;264;22563;-74
2024/02/12 00:21:14;;;;;;;26.60;16.30;;;;;;;3.25;100.00;99154.84;90127;271;138036;-73
2024/02/12 00:23:16;;;;;;;18.90;15.60;;;;;;;3.28;100.00;99156.53;89760;265;22593;-77
2024/02/12 00:25:18;;;;;;;28.90;16.90;;;;;;;3.35;100.00;99156.21;89159;265;138198;-81
2024/02/12 00:27:20;;;;;;;28.20;16.40;;;;;;;3.40;100.00;99162.02;87904;271;22552;-79
2024/02/12 00:29:22;;;;;;;37.00;15.90;;;;;;;3.40;100.00;99163.34;87780;265;137053;-79
2024/02/12 00:31:27;;;;;;;33.70;15.50;;;;;;;3.43;100.00;99162.99;89327;265;25168;-79
2024/02/12 00:33:29;;;;;;;;;;;;;;;3.46;100.00;99159.89;89580;269;137019;-75
2024/02/12 00:35:31;;;;;;;26.00;16.80;;;;;;;3.50;100.00;99160.46;89123;275;23018;-78
2024/02/12 00:37:34;;;;;;;32.60;17.60;;;;;;;3.53;100.00;99158.21;88991;265;137194;-78
2024/02/12 00:39:37;;;;;;;37.60;16.90;;;;;;;3.57;100.00;99152.37;89260;267;22592;-76
2024/02/12 00:41:39;;;;;;;33.00;16.10;;;;;;;3.61;100.00;99151.60;88634;279;138081;-77
2024/02/12 00:43:42;;;;;;;24.00;14.10;;;;;;;3.64;100.00;99152.98;88144;265;25111;-77
2024/02/12 00:45:44;;;;;;;26.10;15.30;;;;;;;3.65;100.00;99157.63;88181;273;137121;-80
2024/02/12 00:47:46;;;;;;;32.70;16.00;;;;;;;3.65;100.00;99156.50;87763;269;25143;-78
2024/02/12 00:49:48;;;;;;;20.00;15.00;;;;;;;3.66;100.00;99157.62;87662;267;137550;-78
2024/02/12 00:51:51;;;;;;;34.40;16.00;;;;;;;3.65;100.00;99150.02;87601;265;25269;-78
2024/02/12 00:53:55;;;;;;;30.40;16.50;;;;;;;3.64;100.00;99146.32;87323;273;136541;-77
2024/02/12 00:55:57;;;;;;;22.40;16.70;;;;;;;3.64;100.00;99147.71;87789;269;25146;-78
2024/02/12 00:58:02;;;;;;;27.00;18.40;;;;;;;3.65;100.00;99142.47;87475;269;137474;-78
2024/02/12 01:00:12;;;;;;;28.90;17.80;;;;;;;3.66;100.00;99136.73;87594;269;137062;-77
2024/02/12 01:02:15;;;;;;;41.10;19.50;;;;;;;3.68;100.00;99134.73;87754;270;25878;-79
2024/02/12 01:04:16;;;;;;;24.90;17.30;;;;;;;3.74;100.00;99128.53;88298;270;137761;-78
2024/02/12 01:06:18;;;;;;;22.00;16.50;;;;;;;3.78;100.00;99125.92;88691;268;25888;-76
2024/02/12 01:08:21;;;;;;;32.80;17.40;;;;;;;3.79;100.00;99124.58;88410;264;137730;-77
2024/02/12 01:10:23;;;;;;;31.70;18.20;;;;;;;3.82;100.00;99120.34;87975;273;23751;-75
2024/02/12 01:12:25;;;;;;;25.50;17.30;;;;;;;3.86;100.00;99115.21;88009;270;136751;-78
2024/02/12 01:14:28;;;;;;;34.80;17.00;;;;;;;3.84;100.00;99107.52;87786;270;22583;-77
2024/02/12 01:16:34;;;;;;;19.60;15.40;;;;;;;3.82;100.00;99102.94;87597;269;137547;-77
2024/02/12 01:18:36;;;;;;;18.90;15.70;;;;;;;3.81;100.00;99096.92;87669;265;22564;-80
2024/02/12 01:20:38;;;;;;;22.30;15.90;;;;;;;3.81;100.00;99101.66;87529;272;136820;-80
2024/02/12 01:22:40;;;;;;;34.10;16.50;;;;;;;3.81;100.00;99097.81;87662;269;24030;-79
2024/02/12 01:24:42;;;;;;;19.60;14.70;;;;;;;3.81;100.00;99094.69;87497;277;137028;-77
2024/02/12 01:26:45;;;;;;;21.40;16.20;;;;;;;3.80;100.00;99093.36;87676;270;25282;-78
2024/02/12 01:28:47;;;;;;;24.00;16.40;;;;;;;3.79;100.00;99091.45;87552;269;138253;-77
2024/02/12 01:30:49;;;;;;;23.70;18.20;;;;;;;3.74;100.00;99087.34;87597;269;22561;-80
2024/02/12 01:32:52;;;;;;;22.10;16.60;;;;;;;3.70;100.00;99091.49;87551;261;138046;-77
2024/02/12 01:34:55;;;;;;;22.50;17.30;;;;;;;3.67;100.00;99087.10;88064;273;22555;-76
2024/02/12 01:36:57;;;;;;;28.10;19.10;;;;;;;3.67;100.00;99089.59;87202;267;136940;-80
2024/02/12 01:38:59;;;;;;;32.30;18.90;;;;;;;3.67;100.00;99090.42;87449;268;22733;-78
2024/02/12 01:41:02;;;;;;;28.20;19.10;;;;;;;3.69;100.00;99095.77;87247;272;137527;-79
2024/02/12 01:43:04;;;;;;;33.80;21.50;;;;;;;3.67;100.00;99097.09;87647;270;25117;-77
2024/02/12 01:45:15;;;;;;;29.00;19.40;;;;;;;3.65;100.00;99095.36;87617;271;136740;-77
2024/02/12 01:47:17;;;;;;;31.60;19.30;;;;;;;3.62;100.00;99095.19;87949;271;25143;-77
2024/02/12 01:49:26;;;;;;;33.30;18.70;;;;;;;3.57;100.00;99099.70;87776;267;137710;-79
2024/02/12 01:51:28;;;;;;;24.90;17.40;;;;;;;3.54;100.00;99099.61;87586;269;24007;-74
2024/02/12 01:53:30;;;;;;;23.70;17.90;;;;;;;3.50;100.00;99103.55;87590;273;136868;-80
2024/02/12 01:55:34;;;;;;;31.50;18.10;;;;;;;3.47;100.00;99100.55;87619;266;22549;-78
2024/02/12 01:57:35;;;;;;;25.10;17.90;;;;;;;3.48;100.00;99105.58;87476;266;137826;-79
2024/02/12 01:59:39;;;;;;;33.80;18.10;;;;;;;3.48;100.00;99102.59;87798;271;23529;-77
2024/02/12 02:01:41;;;;;;;30.20;19.10;;;;;;;3.48;100.00;99102.39;87544;273;138095;-75
2024/02/12 02:03:44;;;;;;;23.00;17.50;;;;;;;3.50;100.00;99103.20;87373;265;25143;-76
2024/02/12 02:05:47;;;;;;;26.80;17.80;;;;;;;3.53;100.00;99102.52;87555;277;136730;-80
2024/02/12 02:07:52;;;;;;;28.90;18.90;;;;;;;3.54;100.00;99099.81;87547;270;22564;-80
2024/02/12 02:09:57;;;;;;;30.00;18.60;;;;;;;3.56;100.00;99106.48;87707;265;136534;-76
2024/02/12 02:11:59;;;;;;;23.70;18.50;;;;;;;3.58;100.00;99118.54;87776;273;22545;-79
2024/02/12 02:14:02;;;;;;;28.60;19.00;;;;;;;3.58;100.00;99118.20;87428;269;136470;-80
2024/02/12 02:16:05;;;;;;;26.70;17.50;;;;;;;3.59;100.00;99113.33;87522;265;136230;-78
2024/02/12 02:18:07;;;;;;;28.10;17.90;;;;;;;3.60;100.00;99111.14;87637;265;22645;-79
2024/02/12 02:20:10;;;;;;;37.50;20.40;;;;;;;3.61;100.00;99118.15;87486;270;136884;-77
2024/02/12 02:22:15;;;;;;;34.80;19.00;;;;;;;3.63;100.00;99115.64;87599;269;22550;-80
2024/02/12 02:24:18;;;;;;;37.70;19.80;;;;;;;3.70;100.00;99112.98;87754;273;136886;-79
2024/02/12 02:26:20;;;;;;;36.10;17.90;;;;;;;3.76;100.00;99117.58;87960;267;25089;-79
2024/02/12 02:28:25;;;;;;;36.70;19.20;;;;;;;3.82;100.00;99114.00;87705;268;138316;-76
2024/02/12 02:30:27;;;;;;;35.50;18.00;;;;;;;3.88;100.00;99119.48;87815;269;24887;-75
2024/02/12 02:32:28;;;;;;;31.50;18.10;;;;;;;3.92;100.00;99112.10;87590;270;138901;-75
2024/02/12 02:34:30;;;;;;;30.40;19.50;;;;;;;3.94;100.00;99115.00;87623;270;27104;-78
2024/02/12 02:36:34;;;;;;;41.00;18.30;;;;;;;3.98;100.00;99115.73;88771;268;136547;-72
2024/02/12 02:38:36;;;;;;;41.40;19.80;;;;;;;4.05;100.00;99118.77;90269;271;22553;-71
2024/02/12 02:40:38;;;;;;;40.80;20.90;;;;;;;4.14;100.00;99124.51;87933;272;136888;-77
2024/02/12 02:42:40;;;;;;;32.20;19.80;;;;;;;4.21;100.00;99125.04;87574;277;25260;-78
2024/02/12 02:44:44;;;;;;;34.20;19.40;;;;;;;4.27;100.00;99121.41;87371;265;137081;-78
2024/02/12 02:46:46;;;;;;;42.70;20.90;;;;;;;4.35;100.00;99126.33;87773;265;22613;-77
2024/02/12 02:48:48;;;;;;;44.00;20.80;;;;;;;4.43;100.00;99128.36;87599;273;137223;-72
2024/02/12 02:50:50;;;;;;;38.40;18.80;;;;;;;4.47;100.00;99130.86;87181;269;28500;-77
2024/02/12 02:52:53;;;;;;;39.20;17.50;;;;;;;4.48;100.00;99130.65;87160;276;137223;-77
2024/02/12 02:54:55;;;;;;;42.80;17.40;;;;;;;4.48;100.00;99131.02;87773;268;26079;-77
2024/02/12 02:56:57;;;;;;;38.70;18.20;;;;;;;4.51;100.00;99132.88;87127;278;136911;-76
2024/02/12 02:58:59;;;;;;;47.50;17.90;;;;;;;4.56;100.00;99129.17;87304;273;22538;-76
2024/02/12 03:01:01;;;;;;;41.30;19.80;;;;;;;4.57;100.00;99124.44;87439;272;136935;-77
2024/02/12 03:03:04;;;;;;;40.50;20.70;;;;;;;4.58;100.00;99119.02;87851;271;24505;-76
2024/02/12 03:05:06;;;;;;;44.80;21.30;;;;;;;4.62;100.00;99113.98;87298;269;137065;-75
2024/02/12 03:07:10;;;;;;;53.50;22.00;;;;;;;4.66;100.00;99110.87;87313;269;26221;-76
2024/02/12 03:09:13;;;;;;;38.40;22.40;;;;;;;4.68;100.00;99108.30;87507;269;136731;-74
2024/02/12 03:11:23;;;;;;;36.30;18.60;;;;;;;4.74;100.00;99113.83;87668;260;25160;-76
2024/02/12 03:13:25;;;;;;;45.10;17.40;;;;;;;4.72;100.00;99112.00;87325;270;137532;-75
2024/02/12 03:15:28;;;;;;;25.10;16.30;;;;;;;4.64;100.00;99106.69;87527;270;22551;-75
2024/02/12 03:17:30;;;;;;;49.70;20.10;;;;;;;4.56;100.00;99097.46;87714;272;137248;-72
2024/02/12 03:19:31;;;;;;;38.60;18.80;;;;;;;4.47;100.00;99096.57;87777;267;27085;-77
2024/02/12 03:21:33;;;;;;;27.50;18.40;;;;;;;4.42;100.00;99103.80;87673;267;137522;-76
2024/02/12 03:23:35;;;;;;;40.20;17.20;;;;;;;4.41;100.00;99102.92;87565;265;23925;-78
2024/02/12 03:25:37;;;;;;;49.30;19.50;;;;;;;4.41;100.00;99101.27;87612;273;137319;-76
2024/02/12 03:27:43;;;;;;;52.80;19.30;;;;;;;4.38;100.00;99101.98;87655;266;23360;-75
2024/02/12 03:29:47;;;;;;;32.80;18.70;;;;;;;4.36;100.00;99098.78;87774;268;136907;-77
2024/02/12 03:31:49;;;;;;;32.10;19.60;;;;;;;4.32;100.00;99100.55;87298;268;22564;-77
2024/02/12 03:33:53;;;;;;;32.70;19.30;;;;;;;4.32;100.00;99100.81;87186;267;139995;-76
2024/02/12 03:35:55;;;;;;;36.60;17.80;;;;;;;4.35;100.00;99101.09;87250;273;25108;-77
2024/02/12 03:37:58;;;;;;;42.10;18.20;;;;;;;4.38;100.00;99103.44;87280;267;136885;-75
2024/02/12 03:40:00;;;;;;;31.50;17.60;;;;;;;4.39;100.00;99101.36;87262;276;24075;-73
2024/02/12 03:42:02;;;;;;;37.30;18.70;;;;;;;4.38;100.00;99104.81;87102;273;138256;-76
2024/02/12 03:44:03;;;;;;;29.30;17.30;;;;;;;4.40;100.00;99106.02;87140;270;138772;-76
2024/02/12 03:46:06;;;;;;;39.90;19.50;;;;;;;4.41;100.00;99098.33;87266;273;25179;-79
2024/02/12 03:59:51;;;;;;;30.40;18.40;;;;;;;4.32;100.00;99086.02;87283;273;25752;-75
2024/02/12 04:01:54;;;;;;;43.40;18.60;;;;;;;4.27;100.00;99084.27;87217;274;136805;-76
2024/02/12 04:03:56;;;;;;;22.20;15.70;;;;;;;4.24;100.00;99085.13;87382;270;25185;-78
2024/02/12 04:05:59;;;;;;;54.40;20.00;;;;;;;4.23;100.00;99085.06;87594;273;136488;-76
2024/02/12 04:08:08;;;;;;;23.70;17.40;;;;;;;4.23;100.00;99083.13;87293;276;25084;-77
2024/02/12 04:10:10;;;;;;;39.30;19.30;;;;;;;4.19;100.00;99080.28;88405;271;22839;-79
2024/02/12 04:12:13;;;;;;;33.70;18.70;;;;;;;4.14;100.00;99077.48;87801;271;137072;-72
2024/02/12 04:14:15;;;;;;;42.80;18.90;;;;;;;4.09;100.00;99077.33;87238;273;25233;-79
2024/02/12 04:16:17;;;;;;;30.20;18.00;;;;;;;4.06;100.00;99080.11;87124;265;138800;-77
2024/02/12 04:18:19;;;;;;;32.50;17.50;;;;;;;4.06;100.00;99079.66;87179;269;22576;-81
2024/02/12 04:20:22;;;;;;;29.10;18.40;;;;;;;4.06;100.00;99081.34;87824;268;138290;-76
2024/02/12 04:22:26;;;;;;;26.30;17.70;;;;;;;4.07;100.00;99082.20;87176;268;25765;-74
2024/02/12 04:24:29;;;;;;;39.10;20.40;;;;;;;4.07;100.00;99086.51;89384;271;136931;-77
2024/02/12 04:26:31;;;;;;;38.70;21.10;;;;;;;4.08;100.00;99091.23;87468;276;24003;-77
2024/02/12 04:28:33;;;;;;;48.60;21.40;;;;;;;4.07;100.00;99083.55;87100;270;136512;-74
2024/02/12 04:30:35;;;;;;;35.80;20.60;;;;;;;4.07;100.00;99083.23;87228;273;24985;-79
2024/02/12 04:32:37;;;;;;;44.60;20.40;;;;;;;4.06;100.00;99083.13;87114;278;136653;-77
2024/02/12 04:34:42;;;;;;;40.00;21.80;;;;;;;4.07;100.00;99080.55;87233;266;24222;-78
2024/02/12 04:36:44;;;;;;;51.00;21.00;;;;;;;4.11;100.00;99080.27;87026;269;139140;-76
2024/02/12 04:38:46;;;;;;;53.60;23.10;;;;;;;4.17;100.00;99085.41;87257;273;22658;-78
2024/02/12 04:40:49;;;;;;;38.50;20.40;;;;;;;4.22;100.00;99092.19;87080;264;136707;-77
2024/02/12 04:42:54;;;;;;;27.60;20.50;;;;;;;4.26;100.00;99095.30;87229;272;24382;-77
2024/02/12 04:44:56;;;;;;;36.50;21.30;;;;;;;4.25;100.00;99097.35;87308;270;137266;-76
2024/02/12 04:46:58;;;;;;;33.30;21.90;;;;;;;4.25;100.00;99097.80;87275;273;22584;-75
2024/02/12 04:49:00;;;;;;;36.90;21.70;;;;;;;4.23;100.00;99093.35;87523;272;136695;-75
2024/02/12 04:51:04;;;;;;;43.00;20.20;;;;;;;4.22;100.00;99087.64;88986;274;25909;-72
2024/02/12 04:53:07;;;;;;;58.40;22.20;;;;;;;4.21;100.00;99084.46;89325;268;137775;-71
2024/02/12 04:55:12;;;;;;;51.00;22.10;;;;;;;4.21;100.00;99086.36;90074;265;22539;-72
2024/02/12 04:57:15;;;;;;;34.20;20.70;;;;;;;4.25;100.00;99088.39;88226;269;136624;-76
2024/02/12 04:59:21;;;;;;;43.70;20.60;;;;;;;4.30;100.00;99092.39;87851;278;22667;-77
2024/02/12 05:01:26;;;;;;;40.80;19.50;;;;;;;4.34;100.00;99100.94;87375;268;136908;-77
2024/02/12 05:03:29;;;;;;;;;;;;;;;4.34;100.00;99098.31;86845;266;859899;-77
2024/02/12 05:05:31;;;;;;;44.70;21.80;;;;;;;4.32;100.00;99090.73;87599;277;123197;-77
2024/02/12 05:07:33;;;;;;;52.00;19.80;;;;;;;4.31;100.00;99082.59;87534;273;22798;-80
2024/02/12 05:09:35;;;;;;;30.00;20.90;;;;;;;4.32;100.00;99079.45;87253;270;136773;-77
2024/02/12 05:11:37;;;;;;;35.40;20.00;;;;;;;4.35;100.00;99088.83;87366;274;22639;-77
2024/02/12 05:13:40;;;;;;;41.50;21.00;;;;;;;4.33;100.00;99087.29;87091;271;137059;-77
2024/02/12 05:15:42;;;;;;;35.90;20.20;;;;;;;4.31;100.00;99088.07;87353;267;24030;-77
2024/02/12 05:17:54;;;;;;;44.90;21.10;;;;;;;4.32;100.00;99094.66;87102;268;136839;-74
2024/02/12 05:22:34;;;;;;;38.90;23.20;;;;;;;4.40;100.00;99099.13;89583;273;22580;-70
2024/02/12 05:24:36;;;;;;;43.40;22.60;;;;;;;4.46;100.00;99106.63;88068;272;136739;-71
2024/02/12 05:26:38;;;;;;;39.70;22.20;;;;;;;4.54;100.00;99110.31;87222;267;24946;-68
2024/02/12 05:28:41;;;;;;;55.20;23.30;;;;;;;4.60;100.00;99110.77;87363;266;137092;-67
2024/02/12 05:30:43;;;;;;;73.30;30.80;;;;;;;4.65;100.00;99109.10;87088;268;22584;-76
2024/02/12 05:32:44;;;;;;;67.40;29.40;;;;;;;4.70;100.00;99109.77;87023;269;137090;-74
2024/02/12 05:34:47;;;;;;;54.30;29.60;;;;;;;4.75;100.00;99109.89;87080;271;23879;-76
2024/02/12 05:36:53;;;;;;;46.90;29.30;;;;;;;4.79;100.00;99113.77;87435;275;140188;-75
2024/02/12 05:38:55;;;;;;;57.20;28.60;;;;;;;4.83;100.00;99117.16;87236;273;22534;-78
2024/02/12 05:40:57;;;;;;;66.00;37.00;;;;;;;4.81;100.00;99119.16;87048;273;139514;-74
2024/02/12 05:42:59;;;;;;;74.50;37.70;;;;;;;4.86;100.00;99124.73;87385;273;23229;-77
2024/02/12 05:45:01;;;;;;;66.90;37.90;;;;;;;4.88;100.00;99128.83;87019;265;138274;-75
2024/02/12 05:47:05;;;;;;;63.60;38.00;;;;;;;4.87;100.00;99130.79;87187;262;22651;-78
2024/02/12 05:49:09;;;;;;;61.20;37.70;;;;;;;4.82;100.00;99132.94;88696;267;138007;-79
2024/02/12 05:51:12;;;;;;;84.10;39.60;;;;;;;4.79;100.00;99133.60;87584;270;22799;-76
2024/02/12 05:53:14;;;;;;;68.70;38.70;;;;;;;4.76;100.00;99137.83;87047;269;138190;-72
2024/02/12 05:55:16;;;;;;;71.50;39.60;;;;;;;4.74;100.00;99138.64;87090;273;23790;-74
2024/02/12 05:57:18;;;;;;;67.60;35.90;;;;;;;4.68;100.00;99134.17;86967;265;137090;-78
2024/02/12 05:59:20;;;;;;;79.70;39.50;;;;;;;4.66;100.00;99136.40;87123;273;24035;-77
2024/02/12 06:01:23;;;;;;;57.80;34.80;;;;;;;4.68;100.00;99136.16;88070;274;137127;-72
2024/02/12 06:03:25;;;;;;;60.00;35.80;;;;;;;4.71;100.00;99129.14;88218;268;22629;-72
2024/02/12 06:05:26;;;;;;;59.60;31.80;;;;;;;4.73;100.00;99123.55;88092;272;136856;-72
2024/02/12 06:07:30;;;;;;;58.10;34.60;;;;;;;4.75;100.00;99118.10;87655;271;22560;-75
2024/02/12 06:09:36;;;;;;;57.80;34.60;;;;;;;4.78;100.00;99119.61;88308;272;138006;-73
2024/02/12 06:11:38;;;;;;;59.90;31.50;;;;;;;4.81;100.00;99122.80;88162;266;24006;-74
2024/02/12 06:13:40;;;;;;;52.10;30.50;;;;;;;4.83;100.00;99115.66;87756;265;136935;-72
2024/02/12 06:15:42;;;;;;;58.00;32.60;;;;;;;4.84;100.00;99111.37;88125;265;22799;-72
2024/02/12 06:17:44;;;;;;;57.40;35.20;;;;;;;4.85;100.00;99110.73;87513;270;137219;-73
2024/02/12 06:19:46;;;;;;;59.10;35.40;;;;;;;4.87;100.00;99109.83;87857;269;25493;-73
2024/02/12 06:21:52;;;;;;;56.30;31.90;;;;;;;4.89;100.00;99109.91;87707;269;136928;-72
2024/02/12 06:23:53;;;;;;;49.40;30.30;;;;;;;4.92;100.00;99111.60;88115;270;24016;-74
2024/02/12 06:25:55;;;;;;;53.50;29.90;;;;;;;4.91;100.00;99113.83;88028;270;138212;-73
2024/02/12 06:28:00;;;;;;;43.80;28.50;;;;;;;4.82;100.00;99112.45;88152;266;22564;-73
2024/02/12 06:30:03;;;;;;;57.40;29.90;;;;;;;4.72;100.00;99111.20;87778;267;136960;-74
2024/02/12 06:32:13;;;;;;;57.80;30.70;;;;;;;4.66;100.00;99108.95;89065;272;137998;-73
2024/02/12 06:34:15;;;;;;;48.90;29.80;;;;;;;4.65;100.00;99107.60;88106;268;23190;-73
2024/02/12 06:36:17;;;;;;;55.90;27.60;;;;;;;4.63;100.00;99102.90;87703;269;137114;-75
2024/02/12 06:38:19;;;;;;;50.70;26.10;;;;;;;4.62;100.00;99100.60;87767;278;24049;-73
2024/02/12 06:40:22;;;;;;;52.60;27.00;;;;;;;4.60;100.00;99103.55;87654;272;137221;-73
2024/02/12 06:42:24;;;;;;;45.50;26.50;;;;;;;4.63;100.00;99103.83;87349;270;22581;-72
2024/02/12 06:44:26;;;;;;;40.80;26.60;;;;;;;4.61;100.00;99106.68;87521;269;137395;-74
2024/02/12 06:46:28;;;;;;;53.70;27.00;;;;;;;4.56;100.00;99103.48;87761;269;22770;-75
2024/02/12 06:48:30;;;;;;;44.50;26.50;;;;;;;4.56;100.00;99102.09;87735;270;136780;-72
2024/02/12 06:50:32;;;;;;;43.90;28.10;;;;;;;4.56;100.00;99099.58;87032;270;24020;-72
2024/02/12 06:52:33;;;;;;;47.60;27.30;;;;;;;4.52;100.00;99107.07;87763;270;136715;-75
2024/02/12 06:54:36;;;;;;;55.20;26.00;;;;;;;4.48;100.00;99106.92;87776;269;22520;-73
2024/02/12 06:56:41;;;;;;;51.40;28.70;;;;;;;4.45;100.00;99103.59;87856;264;136774;-73
2024/02/12 06:58:43;;;;;;;51.20;26.60;;;;;;;4.44;100.00;99105.38;87797;267;23699;-73
2024/02/12 07:00:45;;;;;;;44.50;25.90;;;;;;;4.43;100.00;99107.70;88039;269;136693;-72
2024/02/12 07:02:46;;;;;;;40.80;29.40;;;;;;;4.46;100.00;99113.36;87060;277;25179;-74
2024/02/12 07:04:48;;;;;;;47.50;27.50;;;;;;;4.42;100.00;99119.50;87810;269;137052;-72
2024/02/12 07:06:50;;;;;;;47.40;26.80;;;;;;;4.41;100.00;99112.94;87837;273;22561;-74
2024/02/12 07:08:52;;;;;;;39.00;26.00;;;;;;;4.40;100.00;99111.80;87703;269;136768;-75
2024/02/12 07:10:53;;;;;;;47.00;27.70;;;;;;;4.37;100.00;99112.52;89042;269;22815;-72
2024/02/12 07:12:55;;;;;;;50.30;30.30;;;;;;;4.36;100.00;99108.97;89738;265;136443;-72
2024/02/12 07:14:57;;;;;;;60.40;30.60;;;;;;;4.35;100.00;99108.52;88663;270;24238;-73
2024/02/12 07:16:59;;;;;;;47.80;31.30;;;;;;;4.38;100.00;99111.64;87724;273;136833;-76
2024/02/12 07:19:01;;;;;;;57.10;31.30;;;;;;;4.40;100.00;99111.80;87856;270;23291;-72
2024/02/12 07:21:03;;;;;;;49.40;32.50;;;;;;;4.39;100.00;99111.54;87636;270;136685;-73
2024/02/12 07:23:07;;;;;;;51.50;30.90;;;;;;;4.40;100.00;99112.09;89955;270;23129;-74
2024/02/12 07:25:09;;;;;;;61.20;33.30;;;;;;;4.40;100.00;99111.71;87903;270;138056;-73
2024/02/12 07:27:12;;;;;;;53.50;30.50;;;;;;;4.44;100.00;99114.54;87777;266;22576;-71
2024/02/12 07:29:14;;;;;;;54.00;31.60;;;;;;;4.49;100.00;99107.39;86951;270;136762;-73
2024/02/12 07:31:16;;;;;;;65.10;33.60;;;;;;;4.54;100.00;99111.90;88186;273;25275;-72
2024/02/12 07:33:19;;;;;;;46.80;30.80;;;;;;;4.58;100.00;99117.11;87039;264;136923;-73
2024/02/12 07:35:21;;;;;;;50.40;33.40;;;;;;;4.61;100.00;99117.61;87856;269;25080;-73
2024/02/12 07:37:25;;;;;;;48.00;32.20;;;;;;;4.63;100.00;99122.67;87043;273;137055;-75
2024/02/12 07:39:27;;;;;;;46.20;33.60;;;;;;;4.64;100.00;99130.27;88302;266;22688;-72
2024/02/12 07:41:29;;;;;;;51.10;31.10;;;;;;;4.64;100.00;99129.41;87587;278;139779;-75
2024/02/12 07:43:31;;;;;;;54.00;31.90;;;;;;;4.65;100.00;99133.34;87712;274;24136;-76
2024/02/12 07:45:36;;;;;;;38.10;25.00;;;;;;;4.70;100.00;99128.95;86973;273;137170;-76
2024/02/12 07:47:39;;;;;;;;;;;;;;;4.71;100.00;99127.25;87854;274;22769;-77
2024/02/12 07:49:41;;;;;;;41.40;24.20;;;;;;;4.71;100.00;99126.16;87534;269;123274;-76
2024/02/12 07:51:44;;;;;;;39.40;22.90;;;;;;;4.74;100.00;99128.63;87674;273;23333;-76
2024/02/12 07:53:46;;;;;;;28.40;18.40;;;;;;;4.78;100.00;99128.70;87409;273;136770;-76
2024/02/12 07:55:48;;;;;;;28.50;18.00;;;;;;;4.80;100.00;99130.56;87781;265;23385;-75
2024/02/12 07:57:50;;;;;;;31.70;20.40;;;;;;;4.83;100.00;99125.65;87561;267;137742;-77
2024/02/12 07:59:52;;;;;;;27.20;19.70;;;;;;;4.86;100.00;99125.98;87740;267;24036;-76
2024/02/12 08:01:54;;;;;;;30.90;19.60;;;;;;;4.87;100.00;99119.07;87556;272;136691;-75
2024/02/12 08:03:56;;;;;;;25.70;17.60;;;;;;;4.93;100.00;99113.89;87903;277;25172;-76
2024/02/12 08:05:58;;;;;;;27.20;17.80;;;;;;;4.99;100.00;99113.86;87565;269;136950;-76
2024/02/12 08:08:00;;;;;;;32.70;20.70;;;;;;;5.00;100.00;99114.27;87614;266;25194;-77
2024/02/12 08:10:07;;;;;;;35.40;21.50;;;;;;;4.97;100.00;99110.73;88203;269;26420;-77
2024/02/12 08:12:11;;;;;;;32.00;22.80;;;;;;;4.94;100.00;99105.50;87759;268;138123;-75
2024/02/12 08:14:14;;;;;;;34.60;22.60;;;;;;;4.96;100.00;99105.11;88188;269;22804;-75
2024/02/12 08:16:17;;;;;;;32.60;21.50;;;;;;;5.02;100.00;99110.00;87699;273;136870;-76
2024/02/12 08:18:19;;;;;;;36.70;25.10;;;;;;;5.05;100.00;99111.50;87862;273;22577;-75
2024/02/12 08:20:21;;;;;;;41.40;26.90;;;;;;;5.02;100.00;99114.98;87545;277;137149;-75
2024/02/12 08:22:23;;;;;;;40.00;25.20;;;;;;;4.97;100.00;99117.44;87734;264;24144;-76
2024/02/12 08:24:24;;;;;;;39.30;27.60;;;;;;;4.94;100.00;99120.69;87810;273;137447;-73
2024/02/12 08:26:26;;;;;;;47.10;29.30;;;;;;;4.88;100.00;99119.88;87913;269;22563;-77
2024/02/12 08:28:29;;;;;;;46.70;28.40;;;;;;;4.86;100.00;99118.84;87641;269;136941;-76
2024/02/12 08:30:31;;;;;;;49.40;30.60;;;;;;;4.82;100.00;99116.02;87767;273;22571;-78
2024/02/12 08:32:34;;;;;;;52.40;33.50;;;;;;;4.81;100.00;99113.80;87872;264;136732;-74
2024/02/12 08:34:40;;;;;;;56.40;33.00;;;;;;;4.84;100.00;99120.88;88167;267;23956;-78
2024/02/12 08:36:45;;;;;;;50.70;31.30;;;;;;;4.90;100.00;99124.21;87635;264;136739;-75
2024/02/12 08:38:47;;;;;;;59.30;37.70;;;;;;;4.98;100.00;99127.58;87758;274;22573;-78
2024/02/12 08:40:50;;;;;;;56.60;36.20;;;;;;;5.03;100.00;99127.27;87354;272;138244;-76
2024/02/12 08:42:52;;;;;;;61.50;40.40;;;;;;;5.09;100.00;99126.27;87997;269;22618;-77
2024/02/12 08:44:55;;;;;;;69.40;40.20;;;;;;;5.11;100.00;99127.06;87566;269;137706;-77
2024/02/12 08:47:00;;;;;;;65.80;40.30;;;;;;;5.13;100.00;99132.24;87454;269;25239;-73
2024/02/12 08:49:02;;;;;;;65.60;38.60;;;;;;;5.21;100.00;99133.29;87355;270;136540;-73
2024/02/12 08:51:04;;;;;;;68.90;43.60;;;;;;;5.31;100.00;99132.58;87568;270;22702;-76
2024/02/12 08:53:06;;;;;;;59.50;37.70;;;;;;;5.38;100.00;99132.85;87924;269;136966;-77
2024/02/12 08:55:11;;;;;;;63.10;37.60;;;;;;;5.40;100.00;99134.86;87774;265;22568;-76
2024/02/12 08:57:14;;;;;;;63.60;37.80;;;;;;;5.39;100.00;99141.00;87517;279;138254;-76
2024/02/12 08:59:19;;;;;;;58.30;36.10;;;;;;;5.34;100.00;99135.61;87650;266;22585;-75
2024/02/12 09:01:21;;;;;;;57.20;35.80;;;;;;;5.33;100.00;99132.98;87647;273;136815;-76
2024/02/12 09:03:22;;;;;;;55.10;33.90;;;;;;;5.30;100.00;99136.61;87661;272;24122;-77
2024/02/12 09:06:35;;;;;;;60.20;35.40;;;;;;;5.02;100.00;99134.65;85351;301;603643;-80
2024/02/12 09:08:41;;;;;;;46.30;30.60;;;;;;;5.12;100.00;99133.48;86972;284;137506;-75
2024/02/12 09:10:43;;;;;;;55.20;35.40;;;;;;;5.22;100.00;99136.45;86696;288;22688;-76
2024/02/12 09:12:46;;;;;;;61.20;35.50;;;;;;;5.28;100.00;99131.92;86770;288;135950;-78
2024/02/12 09:14:54;;;;;;;47.20;32.00;;;;;;;5.29;100.00;99128.42;86891;286;25088;-76
2024/02/12 09:16:56;;;;;;;55.10;33.90;;;;;;;5.34;100.00;99127.15;86831;290;137652;-79
2024/02/12 09:18:58;;;;;;;50.20;29.50;;;;;;;5.37;100.00;99125.69;86972;286;25223;-76
2024/02/12 09:21:01;;;;;;;53.80;33.10;;;;;;;5.41;100.00;99127.36;86357;289;834585;-77
2024/02/12 09:23:04;;;;;;;52.40;31.80;;;;;;;5.40;100.00;99127.08;87159;289;22728;-76
2024/02/12 09:25:11;;;;;;;51.10;32.60;;;;;;;5.42;100.00;99126.16;87254;270;136601;-75
2024/02/12 09:27:13;;;;;;;55.40;34.80;;;;;;;5.51;100.00;99124.75;88054;273;22577;-73
2024/02/12 09:29:16;;;;;;;58.50;34.90;;;;;;;5.60;100.00;99121.41;89503;269;137826;-75
2024/02/12 09:31:18;;;;;;;52.40;33.50;;;;;;;5.71;100.00;99124.14;87941;275;24127;-74
2024/02/12 09:33:20;;;;;;;47.10;31.60;;;;;;;5.79;100.00;99124.39;87430;275;136256;-78
2024/02/12 09:35:22;;;;;;;53.00;33.00;;;;;;;5.85;100.00;99123.08;87640;270;23795;-77
2024/02/12 09:37:29;;;;;;;52.50;33.60;;;;;;;5.87;100.00;99123.08;87379;273;137528;-79
2024/02/12 09:39:31;;;;;;;54.10;33.40;;;;;;;5.85;100.00;99125.39;87361;274;22565;-75
2024/02/12 09:41:37;;;;;;;51.60;32.80;;;;;;;5.82;100.00;99123.44;87057;284;137843;-75
2024/02/12 09:43:44;;;;;;;54.50;35.10;;;;;;;5.81;100.00;99121.52;87384;282;25137;-74